sensor_id;sensor_type;location;lat;lon;timestamp;temperature;humidity
53274;DHT22;39163;52.696;6.758;2022-08-18T06:25:27;19.90;99.90
53274;DHT22;39163;52.696;6.758;2022-08-18T09:38:10;22.40;99.90
53274;DHT22;39163;52.696;6.758;2022-08-18T09:41:23;22.30;99.90
53274;DHT22;39163;52.696;6.758;2022-08-18T09:49:43;22.50;99.90
53274;DHT22;39163;52.696;6.758;2022-08-18T09:58:18;22.40;99.90
53274;DHT22;39163;52.696;6.758;2022-08-18T10:01:24;22.30;99.90
53274;DHT22;39163;52.696;6.758;2022-08-18T10:17:28;21.40;99.90
53274;DHT22;39163;52.696;6.758;2022-08-18T10:22:55;21.50;99.90
53274;DHT22;39163;52.696;6.758;2022-08-18T10:29:02;21.70;99.90
53274;DHT22;39163;52.696;6.758;2022-08-18T12:14:20;25.80;99.90
53274;DHT22;39163;52.696;6.758;2022-08-18T15:40:25;28.80;97.90
53274;DHT22;39163;52.696;6.758;2022-08-18T15:42:58;28.80;99.10
53274;DHT22;39163;52.696;6.758;2022-08-18T15:45:33;29.00;98.60
53274;DHT22;39163;52.696;6.758;2022-08-18T15:48:16;29.10;98.60
53274;DHT22;39163;52.696;6.758;2022-08-18T15:50:52;29.10;98.20
53274;DHT22;39163;52.696;6.758;2022-08-18T15:53:25;28.80;97.10
53274;DHT22;39163;52.696;6.758;2022-08-18T15:55:57;28.60;97.60
53274;DHT22;39163;52.696;6.758;2022-08-18T15:58:23;28.50;98.10
53274;DHT22;39163;52.696;6.758;2022-08-18T16:00:55;28.40;98.70
53274;DHT22;39163;52.696;6.758;2022-08-18T16:03:24;28.30;99.60
53274;DHT22;39163;52.696;6.758;2022-08-18T16:05:52;28.20;98.70
53274;DHT22;39163;52.696;6.758;2022-08-18T16:08:22;27.90;99.10
53274;DHT22;39163;52.696;6.758;2022-08-18T16:10:49;27.70;99.90
53274;DHT22;39163;52.696;6.758;2022-08-18T16:13:18;27.60;99.90
53274;DHT22;39163;52.696;6.758;2022-08-18T16:15:47;27.50;99.90
53274;DHT22;39163;52.696;6.758;2022-08-18T16:18:16;27.30;99.90
53274;DHT22;39163;52.696;6.758;2022-08-18T16:20:43;27.20;99.90
53274;DHT22;39163;52.696;6.758;2022-08-18T16:23:10;27.10;99.90
53274;DHT22;39163;52.696;6.758;2022-08-18T16:25:41;27.20;99.90
53274;DHT22;39163;52.696;6.758;2022-08-18T16:28:07;27.30;99.90
53274;DHT22;39163;52.696;6.758;2022-08-18T16:30:34;27.50;99.90
53274;DHT22;39163;52.696;6.758;2022-08-18T16:33:06;27.60;99.90
53274;DHT22;39163;52.696;6.758;2022-08-18T16:35:35;27.60;99.90
53274;DHT22;39163;52.696;6.758;2022-08-18T16:38:04;27.60;99.90
53274;DHT22;39163;52.696;6.758;2022-08-18T16:40:30;27.60;99.90
53274;DHT22;39163;52.696;6.758;2022-08-18T16:42:57;27.60;99.90
53274;DHT22;39163;52.696;6.758;2022-08-18T16:45:25;27.60;99.90
53274;DHT22;39163;52.696;6.758;2022-08-18T16:47:52;27.40;99.90
53274;DHT22;39163;52.696;6.758;2022-08-18T16:50:18;27.40;99.90
53274;DHT22;39163;52.696;6.758;2022-08-18T16:52:44;27.30;99.90
53274;DHT22;39163;52.696;6.758;2022-08-18T16:55:11;27.20;99.90
53274;DHT22;39163;52.696;6.758;2022-08-18T16:57:38;27.20;99.90
53274;DHT22;39163;52.696;6.758;2022-08-18T17:00:24;27.10;99.90
53274;DHT22;39163;52.696;6.758;2022-08-18T17:03:09;27.10;99.90
53274;DHT22;39163;52.696;6.758;2022-08-18T17:06:15;27.00;99.90
53274;DHT22;39163;52.696;6.758;2022-08-18T17:08:42;26.90;99.90
53274;DHT22;39163;52.696;6.758;2022-08-18T17:11:15;26.80;99.90
53274;DHT22;39163;52.696;6.758;2022-08-18T17:13:42;26.70;99.90
53274;DHT22;39163;52.696;6.758;2022-08-18T17:16:08;26.70;99.90
53274;DHT22;39163;52.696;6.758;2022-08-18T17:18:35;26.60;99.90
53274;DHT22;39163;52.696;6.758;2022-08-18T17:21:03;26.60;99.90
53274;DHT22;39163;52.696;6.758;2022-08-18T17:23:30;26.60;99.90
53274;DHT22;39163;52.696;6.758;2022-08-18T17:25:56;26.40;99.90
53274;DHT22;39163;52.696;6.758;2022-08-18T17:28:26;26.40;99.90
53274;DHT22;39163;52.696;6.758;2022-08-18T17:30:54;26.30;99.90
53274;DHT22;39163;52.696;6.758;2022-08-18T17:33:32;26.30;99.90
53274;DHT22;39163;52.696;6.758;2022-08-18T17:36:04;26.20;99.90
53274;DHT22;39163;52.696;6.758;2022-08-18T17:41:05;26.00;99.90
53274;DHT22;39163;52.696;6.758;2022-08-18T17:43:34;25.80;99.90
53274;DHT22;39163;52.696;6.758;2022-08-18T17:46:07;25.70;99.90
53274;DHT22;39163;52.696;6.758;2022-08-18T17:48:40;25.60;99.90
53274;DHT22;39163;52.696;6.758;2022-08-18T17:51:24;25.50;99.90
53274;DHT22;39163;52.696;6.758;2022-08-18T17:54:43;25.30;99.90
53274;DHT22;39163;52.696;6.758;2022-08-18T17:57:30;25.10;99.90
53274;DHT22;39163;52.696;6.758;2022-08-18T18:02:28;24.80;99.90
53274;DHT22;39163;52.696;6.758;2022-08-18T18:05:00;24.60;99.90
53274;DHT22;39163;52.696;6.758;2022-08-18T18:10:05;24.40;99.90
53274;DHT22;39163;52.696;6.758;2022-08-18T18:12:34;24.20;99.90
53274;DHT22;39163;52.696;6.758;2022-08-18T18:15:06;24.10;99.90
53274;DHT22;39163;52.696;6.758;2022-08-18T18:17:36;24.00;99.90
53274;DHT22;39163;52.696;6.758;2022-08-18T18:20:30;23.90;99.90
53274;DHT22;39163;52.696;6.758;2022-08-18T18:36:48;23.10;99.90
53274;DHT22;39163;52.696;6.758;2022-08-18T18:39:27;23.00;99.90
53274;DHT22;39163;52.696;6.758;2022-08-18T18:42:19;22.90;99.90
53274;DHT22;39163;52.696;6.758;2022-08-18T18:44:54;22.80;99.90
